createdAt,value
2023-05-18T00:00:37.673Z,98396.38
2023-05-18T00:03:07.245Z,98393.75
2023-05-18T00:05:36.910Z,98397.38
2023-05-18T00:08:06.176Z,98392.72
2023-05-18T00:10:35.467Z,98397.19
2023-05-18T00:13:05.436Z,98389.53
2023-05-18T00:15:34.639Z,98390.09
2023-05-18T00:18:04.095Z,98394.97
2023-05-18T00:20:34.737Z,98390.13
2023-05-18T00:23:03.880Z,98392.97
2023-05-18T00:25:32.954Z,98388.75
2023-05-18T00:28:02.187Z,98387.16
2023-05-18T00:30:31.977Z,98388.38
2023-05-18T00:33:01.498Z,98383.72
2023-05-18T00:35:30.769Z,98387.56
2023-05-18T00:38:00.139Z,98386.34
2023-05-18T00:40:29.979Z,98394.63
2023-05-18T00:43:00.705Z,98394.00
2023-05-18T00:45:30.101Z,98387.16
2023-05-18T00:47:59.768Z,98394.00
2023-05-18T00:50:28.975Z,98385.19
2023-05-18T00:52:58.177Z,98392.41
2023-05-18T00:55:28.720Z,98392.63
2023-05-18T00:57:59.094Z,98391.84
2023-05-18T01:00:28.998Z,98393.22
2023-05-18T01:02:59.872Z,98393.22
2023-05-18T01:05:29.417Z,98393.03
2023-05-18T01:07:58.783Z,98398.44
2023-05-18T01:10:28.078Z,98401.66
2023-05-18T01:13:05.593Z,98398.84
2023-05-18T01:15:38.152Z,98386.97
2023-05-18T01:18:23.617Z,98402.88
2023-05-18T01:21:19.452Z,98400.63
2023-05-18T01:24:16.245Z,98396.38
2023-05-18T01:26:47.859Z,98394.78
2023-05-18T01:29:19.493Z,98396.19
2023-05-18T01:31:48.586Z,98392.75
2023-05-18T01:34:17.800Z,98390.94
2023-05-18T01:36:47.018Z,98394.97
2023-05-18T01:39:16.381Z,98386.72
2023-05-18T01:42:05.932Z,98390.34
2023-05-18T01:45:03.248Z,98394.41
2023-05-18T01:47:34.115Z,98380.72
2023-05-18T01:50:09.003Z,98389.38
2023-05-18T01:52:58.121Z,98396.84
2023-05-18T01:55:30.990Z,98390.81
2023-05-18T01:58:00.931Z,98391.59
2023-05-18T02:00:30.605Z,98394.81
2023-05-18T02:03:00.528Z,98400.06
2023-05-18T02:05:30.730Z,98400.88
2023-05-18T02:08:00.161Z,98406.53
2023-05-18T02:10:29.670Z,98400.91
2023-05-18T02:12:58.767Z,98402.91
2023-05-18T02:15:29.651Z,98406.53
2023-05-18T02:17:59.139Z,98404.38
2023-05-18T02:20:32.667Z,98407.78
2023-05-18T02:23:01.830Z,98418.28
2023-05-18T02:25:31.684Z,98413.22
2023-05-18T02:28:01.221Z,98415.84
2023-05-18T02:30:33.234Z,98413.84
2023-05-18T02:33:02.458Z,98421.06
2023-05-18T02:35:31.922Z,98409.78
2023-05-18T02:38:02.701Z,98409.97
2023-05-18T02:40:31.993Z,98415.63
2023-05-18T02:43:03.157Z,98421.84
2023-05-18T02:45:33.038Z,98421.84
2023-05-18T02:48:02.397Z,98423.47
2023-05-18T02:50:31.620Z,98418.28
2023-05-18T02:53:00.766Z,98430.13
2023-05-18T02:55:30.222Z,98422.25
2023-05-18T02:58:15.882Z,98436.38
2023-05-18T03:01:12.400Z,98431.94
2023-05-18T03:03:48.000Z,98430.56
2023-05-18T03:06:17.396Z,98439.78
2023-05-18T03:08:49.125Z,98435.16
2023-05-18T03:11:18.575Z,98437.56
2023-05-18T03:13:48.574Z,98440.38
2023-05-18T03:16:18.796Z,98445.81
2023-05-18T03:18:49.040Z,98446.59
2023-05-18T03:21:18.262Z,98453.44
2023-05-18T03:23:47.792Z,98455.66
2023-05-18T03:26:18.630Z,98449.63
2023-05-18T03:28:47.792Z,98458.88
2023-05-18T03:31:18.004Z,98459.50
2023-05-18T03:33:47.222Z,98455.25
2023-05-18T03:36:16.779Z,98457.88
2023-05-18T03:38:46.570Z,98469.38
2023-05-18T03:41:16.799Z,98461.72
2023-05-18T03:43:46.072Z,98469.38
2023-05-18T03:46:15.299Z,98469.97
2023-05-18T03:48:44.456Z,98477.81
2023-05-18T03:51:13.736Z,98477.47
2023-05-18T03:53:42.900Z,98471.00
2023-05-18T03:56:13.394Z,98477.03
2023-05-18T03:58:44.495Z,98466.75
2023-05-18T04:01:13.653Z,98475.97
2023-05-18T04:03:43.935Z,98469.53
2023-05-18T04:06:13.449Z,98479.78
2023-05-18T04:08:43.306Z,98481.38
2023-05-18T04:11:12.433Z,98484.19
2023-05-18T04:13:42.279Z,98477.31
2023-05-18T04:16:13.541Z,98480.09
2023-05-18T04:18:44.410Z,98480.50
2023-05-18T04:21:13.612Z,98481.66
2023-05-18T04:23:42.708Z,98485.06
2023-05-18T04:26:11.833Z,98483.63
2023-05-18T04:28:43.254Z,98484.22
2023-05-18T04:31:14.543Z,98488.00
2023-05-18T04:33:46.718Z,98485.25
2023-05-18T04:36:21.214Z,98484.84
2023-05-18T04:38:50.929Z,98493.69
2023-05-18T04:41:20.651Z,98487.22
2023-05-18T04:43:51.255Z,98488.81
2023-05-18T04:46:22.468Z,98497.44
2023-05-18T04:48:53.154Z,98491.53
2023-05-18T04:51:22.329Z,98488.28
2023-05-18T04:53:51.634Z,98493.09
2023-05-18T04:56:22.774Z,98497.94
2023-05-18T04:58:51.925Z,98492.69
2023-05-18T05:01:21.228Z,98498.53
2023-05-18T05:03:51.132Z,98496.53
2023-05-18T05:06:20.607Z,98492.09
2023-05-18T05:08:49.726Z,98502.34
2023-05-18T05:11:19.510Z,98502.16
2023-05-18T05:13:49.594Z,98503.16
2023-05-18T05:16:18.919Z,98505.78
2023-05-18T05:18:48.166Z,98512.66
2023-05-18T05:21:18.177Z,98520.13
2023-05-18T05:23:47.796Z,98520.31
2023-05-18T05:26:18.003Z,98518.06
2023-05-18T05:28:48.174Z,98521.31
2023-05-18T05:31:17.604Z,98522.50
2023-05-18T05:33:47.836Z,98520.44
2023-05-18T05:36:17.187Z,98523.25
2023-05-18T05:40:50.327Z,98527.63
2023-05-18T05:43:19.782Z,98522.97
2023-05-18T05:45:49.846Z,98525.97
2023-05-18T05:48:20.048Z,98534.44
2023-05-18T05:50:49.680Z,98531.59
2023-05-18T05:53:19.913Z,98534.63
2023-05-18T05:55:50.766Z,98529.13
2023-05-18T05:58:20.743Z,98532.94
2023-05-18T06:00:53.763Z,98535.56
2023-05-18T06:03:23.069Z,98532.72
2023-05-18T06:05:52.460Z,98537.78
2023-05-18T06:08:27.027Z,98538.66
2023-05-18T06:10:56.737Z,98542.63
2023-05-18T06:13:27.070Z,98548.19
2023-05-18T06:15:58.480Z,98545.28
2023-05-18T06:18:27.675Z,98545.59
2023-05-18T06:21:02.044Z,98541.06
2023-05-18T06:23:31.776Z,98545.44
2023-05-18T06:26:03.830Z,98555.91
2023-05-18T06:28:51.618Z,98549.97
2023-05-18T06:31:59.507Z,98551.00
2023-05-18T06:34:38.428Z,98553.41
2023-05-18T06:37:08.014Z,98552.59
2023-05-18T06:39:37.118Z,98556.31
2023-05-18T06:42:06.777Z,98570.09
2023-05-18T06:44:36.549Z,98560.94
2023-05-18T06:47:19.989Z,98573.91
2023-05-18T06:49:50.346Z,98573.16
2023-05-18T06:52:19.577Z,98573.22
2023-05-18T06:54:48.873Z,98579.28
2023-05-18T06:57:18.299Z,98577.69
2023-05-18T06:59:53.638Z,98583.72
2023-05-18T07:02:22.851Z,98582.94
2023-05-18T07:04:52.201Z,98592.97
2023-05-18T07:07:21.551Z,98584.28
2023-05-18T07:09:50.850Z,98586.28
2023-05-18T07:12:19.944Z,98588.84
2023-05-18T07:14:49.086Z,98593.31
2023-05-18T07:17:18.380Z,98583.53
2023-05-18T07:19:47.531Z,98592.38
2023-05-18T07:22:16.682Z,98583.03
2023-05-18T07:24:45.876Z,98589.03
2023-05-18T07:27:15.071Z,98596.06
2023-05-18T07:29:44.209Z,98599.03
2023-05-18T07:32:13.323Z,98600.63
2023-05-18T07:34:46.764Z,98603.75
2023-05-18T07:37:16.155Z,98606.91
2023-05-18T07:39:45.430Z,98603.16
2023-05-18T07:42:14.587Z,98598.03
2023-05-18T07:44:43.806Z,98605.03
2023-05-18T07:47:13.022Z,98594.88
2023-05-18T07:49:43.156Z,98597.22
2023-05-18T07:52:12.271Z,98608.44
2023-05-18T07:54:41.358Z,98602.53
2023-05-18T07:57:10.557Z,98606.22
2023-05-18T07:59:39.765Z,98603.84
2023-05-18T08:02:08.856Z,98607.56
2023-05-18T08:04:38.213Z,98607.81
2023-05-18T08:07:07.453Z,98604.06
2023-05-18T08:09:36.590Z,98612.47
2023-05-18T08:12:06.297Z,98608.00
2023-05-18T08:14:35.497Z,98613.16
2023-05-18T08:17:05.048Z,98615.22
2023-05-18T08:19:34.282Z,98614.69
2023-05-18T08:22:03.501Z,98615.50
2023-05-18T08:24:33.835Z,98615.72
2023-05-18T08:27:03.642Z,98619.16
2023-05-18T08:29:32.745Z,98621.00
2023-05-18T08:32:01.875Z,98618.66
2023-05-18T08:34:31.101Z,98622.47
2023-05-18T08:37:00.616Z,98626.69
2023-05-18T08:39:32.015Z,98620.47
2023-05-18T08:42:27.544Z,98626.41
2023-05-18T08:45:24.022Z,98630.88
2023-05-18T08:47:57.690Z,98623.97
2023-05-18T08:50:30.868Z,98623.44
2023-05-18T08:53:06.076Z,98620.84
2023-05-18T08:55:37.217Z,98624.81
2023-05-18T08:58:09.264Z,98630.59
2023-05-18T09:00:38.472Z,98624.06
2023-05-18T09:03:08.390Z,98615.09
2023-05-18T09:05:38.306Z,98617.81
2023-05-18T09:08:08.702Z,98620.22
2023-05-18T09:10:39.359Z,98617.00
2023-05-18T09:13:10.797Z,98621.66
2023-05-18T09:15:40.219Z,98615.97
2023-05-18T09:18:09.557Z,98615.66
2023-05-18T09:20:38.910Z,98610.66
2023-05-18T09:23:08.216Z,98611.97
2023-05-18T09:25:46.083Z,98618.38
2023-05-18T09:28:40.053Z,98616.34
2023-05-18T09:31:16.137Z,98607.81
2023-05-18T09:33:46.518Z,98615.47
2023-05-18T09:36:16.701Z,98609.09
2023-05-18T09:38:46.932Z,98604.50
2023-05-18T09:41:17.635Z,98604.03
2023-05-18T09:43:51.514Z,98603.63
2023-05-18T09:46:22.170Z,98603.97
2023-05-18T09:48:53.013Z,98606.19
2023-05-18T09:51:25.528Z,98608.16
2023-05-18T09:53:56.809Z,98603.72
2023-05-18T09:56:27.219Z,98607.72
2023-05-18T09:58:56.473Z,98599.75
2023-05-18T10:01:26.869Z,98614.72
2023-05-18T10:04:03.968Z,98612.06
2023-05-18T10:06:33.413Z,98613.72
2023-05-18T10:09:04.693Z,98612.41
2023-05-18T10:11:35.140Z,98611.88
2023-05-18T10:14:04.284Z,98612.91
2023-05-18T10:16:33.448Z,98620.13
2023-05-18T10:19:05.788Z,98612.97
2023-05-18T10:21:36.921Z,98607.72
2023-05-18T10:24:08.782Z,98613.31
2023-05-18T10:26:40.686Z,98624.75
2023-05-18T10:29:10.513Z,98620.22
2023-05-18T10:31:40.700Z,98623.97
2023-05-18T10:34:11.174Z,98615.19
2023-05-18T10:36:40.433Z,98616.50
2023-05-18T10:39:10.546Z,98620.72
2023-05-18T10:41:40.098Z,98614.88
2023-05-18T10:44:10.362Z,98608.22
2023-05-18T10:46:41.259Z,98615.69
2023-05-18T10:49:13.495Z,98613.06
2023-05-18T10:51:46.355Z,98610.09
2023-05-18T10:54:15.605Z,98610.63
2023-05-18T10:56:50.552Z,98614.91
2023-05-18T10:59:20.522Z,98615.44
2023-05-18T11:01:51.578Z,98614.63
2023-05-18T11:04:27.154Z,98614.34
2023-05-18T11:07:00.711Z,98619.06
2023-05-18T11:09:30.282Z,98615.31
2023-05-18T11:12:00.985Z,98624.59
2023-05-18T11:14:31.506Z,98618.97
2023-05-18T11:17:16.937Z,98614.69
2023-05-18T11:20:13.262Z,98610.44
2023-05-18T11:22:45.928Z,98614.13
2023-05-18T11:25:33.104Z,98614.38
2023-05-18T11:28:07.842Z,98612.66
2023-05-18T11:30:36.992Z,98620.03
2023-05-18T11:33:13.967Z,98616.00
2023-05-18T11:36:01.421Z,98615.94
2023-05-18T11:38:45.996Z,98612.25
2023-05-18T11:41:34.348Z,98620.22
2023-05-18T11:44:18.261Z,98613.47
2023-05-18T11:47:03.367Z,98615.44
2023-05-18T11:49:37.346Z,98623.75
2023-05-18T11:52:07.941Z,98616.91
2023-05-18T11:54:47.087Z,98619.38
2023-05-18T11:57:18.694Z,98617.50
2023-05-18T11:59:48.780Z,98613.56
2023-05-18T12:02:26.872Z,98615.69
2023-05-18T12:04:58.213Z,98615.94
2023-05-18T12:07:28.872Z,98621.75
2023-05-18T12:10:01.843Z,98615.81
2023-05-18T12:12:31.718Z,98627.16
2023-05-18T12:15:03.595Z,98620.69
2023-05-18T12:17:40.798Z,98629.41
2023-05-18T12:20:14.788Z,98630.69
2023-05-18T12:22:46.445Z,98631.94
2023-05-18T12:25:16.055Z,98630.84
2023-05-18T12:27:48.031Z,98626.22
2023-05-18T12:30:26.427Z,98626.84
2023-05-18T12:32:57.044Z,98637.84
2023-05-18T12:35:27.462Z,98629.19
2023-05-18T12:38:01.673Z,98632.75
2023-05-18T12:40:48.986Z,98635.72
2023-05-18T12:43:18.378Z,98640.84
2023-05-18T12:45:47.618Z,98647.63
2023-05-18T12:48:16.785Z,98644.84
2023-05-18T12:50:50.905Z,98641.03
2023-05-18T12:53:20.196Z,98639.28
2023-05-18T12:56:04.323Z,98643.38
2023-05-18T12:58:33.557Z,98642.75
2023-05-18T13:01:10.273Z,98654.78
2023-05-18T13:03:40.807Z,98656.75
2023-05-18T13:06:10.117Z,98661.00
2023-05-18T13:08:39.225Z,98661.25
2023-05-18T13:11:14.371Z,98664.91
2023-05-18T13:14:04.918Z,98668.38
2023-05-18T13:16:37.316Z,98668.84
2023-05-18T13:19:09.527Z,98674.03
2023-05-18T13:21:39.192Z,98676.59
2023-05-18T13:24:08.382Z,98675.00
2023-05-18T13:26:37.534Z,98666.03
2023-05-18T13:29:07.612Z,98674.38
2023-05-18T13:31:36.751Z,98672.72
2023-05-18T13:34:05.981Z,98677.09
2023-05-18T13:36:36.600Z,98673.38
2023-05-18T13:39:07.310Z,98671.47
2023-05-18T13:41:36.640Z,98683.94
2023-05-18T13:44:06.017Z,98678.03
2023-05-18T13:46:37.957Z,98677.56
2023-05-18T13:49:07.255Z,98682.28
2023-05-18T13:51:36.310Z,98676.34
2023-05-18T13:54:05.750Z,98686.53
2023-05-18T13:56:34.784Z,98671.16
2023-05-18T13:59:03.793Z,98678.19
2023-05-18T14:01:32.976Z,98683.50
2023-05-18T14:04:05.294Z,98681.34
2023-05-18T14:06:34.404Z,98688.91
2023-05-18T14:09:03.487Z,98683.09
2023-05-18T14:11:34.716Z,98689.69
2023-05-18T14:14:03.914Z,98684.13
2023-05-18T14:16:33.007Z,98685.31
2023-05-18T14:19:02.378Z,98693.38
2023-05-18T14:21:31.645Z,98692.59
2023-05-18T14:24:03.739Z,98683.88
2023-05-18T14:26:36.601Z,98688.94
2023-05-18T14:29:05.795Z,98687.25
2023-05-18T14:31:35.464Z,98695.94
2023-05-18T14:34:04.782Z,98698.81
2023-05-18T14:36:33.926Z,98700.31
2023-05-18T14:39:03.127Z,98699.16
2023-05-18T14:41:32.249Z,98697.31
2023-05-18T14:44:03.907Z,98709.31
2023-05-18T14:46:33.191Z,98706.78
2023-05-18T14:49:02.891Z,98706.03
2023-05-18T14:51:31.969Z,98704.31
2023-05-18T14:54:01.066Z,98706.16
2023-05-18T14:56:30.169Z,98706.84
2023-05-18T14:58:59.189Z,98706.69
2023-05-18T15:01:28.394Z,98704.91
2023-05-18T15:03:57.558Z,98711.66
2023-05-18T15:06:26.978Z,98716.78
2023-05-18T15:08:56.218Z,98707.59
2023-05-18T15:11:25.308Z,98708.31
2023-05-18T15:13:54.310Z,98706.50
2023-05-18T15:16:23.464Z,98708.53
2023-05-18T15:18:53.139Z,98716.22
2023-05-18T15:21:22.196Z,98707.91
2023-05-18T15:23:51.434Z,98711.47
2023-05-18T15:26:21.357Z,98711.41
2023-05-18T15:28:50.475Z,98707.06
2023-05-18T15:31:19.805Z,98708.31
2023-05-18T15:33:49.005Z,98708.00
2023-05-18T15:36:18.119Z,98709.47
2023-05-18T15:38:47.207Z,98706.50
2023-05-18T15:41:16.297Z,98709.69
2023-05-18T15:43:46.742Z,98708.78
2023-05-18T15:46:15.800Z,98712.09
2023-05-18T15:48:44.995Z,98696.97
2023-05-18T15:51:14.315Z,98708.66
2023-05-18T15:53:43.611Z,98700.41
2023-05-18T15:56:12.786Z,98717.38
2023-05-18T15:58:41.782Z,98708.66
2023-05-18T16:01:11.251Z,98714.59
2023-05-18T16:03:40.559Z,98716.47
2023-05-18T16:06:09.630Z,98713.47
2023-05-18T16:08:38.729Z,98719.41
2023-05-18T16:11:07.731Z,98718.72
2023-05-18T16:13:36.855Z,98720.16
2023-05-18T16:16:08.508Z,98730.34
2023-05-18T16:18:37.816Z,98725.53
2023-05-18T16:21:06.925Z,98716.91
2023-05-18T16:23:36.015Z,98725.00
2023-05-18T16:26:05.823Z,98725.00
2023-05-18T16:28:35.311Z,98730.50
2023-05-18T16:31:12.192Z,98733.22
2023-05-18T16:33:41.344Z,98730.44
2023-05-18T16:36:10.587Z,98738.75
2023-05-18T16:38:39.698Z,98733.13
2023-05-18T16:41:08.801Z,98740.06
2023-05-18T16:43:38.546Z,98735.84
2023-05-18T16:46:07.611Z,98733.41
2023-05-18T16:48:36.703Z,98730.56
2023-05-18T16:51:08.776Z,98745.75
2023-05-18T16:53:37.856Z,98738.09
2023-05-18T16:56:07.265Z,98741.16
2023-05-18T16:58:36.759Z,98737.56
2023-05-18T17:01:12.930Z,98742.69
2023-05-18T17:03:55.092Z,98741.28
2023-05-18T17:06:25.440Z,98746.78
2023-05-18T17:08:58.290Z,98745.00
2023-05-18T17:11:27.902Z,98744.41
2023-05-18T17:13:59.960Z,98738.59
2023-05-18T17:16:30.298Z,98748.50
2023-05-18T17:18:59.680Z,98753.16
2023-05-18T17:21:30.656Z,98751.00
2023-05-18T17:24:00.810Z,98748.78
2023-05-18T17:26:33.419Z,98756.28
2023-05-18T17:29:02.647Z,98757.53
2023-05-18T17:31:31.786Z,98753.28
2023-05-18T17:34:00.845Z,98755.94
2023-05-18T17:36:29.940Z,98748.69
2023-05-18T17:38:59.025Z,98752.75
2023-05-18T17:41:28.114Z,98753.22
2023-05-18T17:43:57.147Z,98755.38
2023-05-18T17:46:26.378Z,98753.22
2023-05-18T17:48:55.800Z,98759.28
2023-05-18T17:51:25.153Z,98756.25
2023-05-18T17:53:56.367Z,98766.34
2023-05-18T17:56:27.494Z,98759.91
2023-05-18T17:58:58.718Z,98763.53
2023-05-18T18:01:28.953Z,98767.19
2023-05-18T18:03:58.376Z,98771.88
2023-05-18T18:06:27.686Z,98766.00
2023-05-18T18:08:58.037Z,98767.03
2023-05-18T18:11:27.461Z,98773.75
2023-05-18T18:13:56.527Z,98761.03
2023-05-18T18:16:25.943Z,98764.25
2023-05-18T18:18:56.533Z,98761.88
2023-05-18T18:21:26.072Z,98773.81
2023-05-18T18:23:55.297Z,98771.19
2023-05-18T18:26:24.522Z,98766.94
2023-05-18T18:28:53.733Z,98779.06
2023-05-18T18:31:23.367Z,98779.06
2023-05-18T18:33:52.950Z,98772.19
2023-05-18T18:36:23.262Z,98782.53
2023-05-18T18:38:54.072Z,98779.16
2023-05-18T18:41:23.412Z,98785.41
2023-05-18T18:43:54.720Z,98780.97
2023-05-18T18:46:24.456Z,98789.91
2023-05-18T18:48:53.925Z,98787.69
2023-05-18T18:51:23.265Z,98792.34
2023-05-18T18:53:52.746Z,98801.63
2023-05-18T18:56:24.180Z,98797.38
2023-05-18T18:58:53.586Z,98786.69
2023-05-18T19:01:22.857Z,98800.97
2023-05-18T19:03:52.874Z,98796.97
2023-05-18T19:06:23.187Z,98803.44
2023-05-18T19:08:53.382Z,98800.81
2023-05-18T19:11:23.657Z,98799.59
2023-05-18T19:13:52.773Z,98805.88
2023-05-18T19:16:22.809Z,98803.44
2023-05-18T19:18:52.562Z,98803.44
2023-05-18T19:21:22.018Z,98794.56
2023-05-18T19:23:51.622Z,98801.63
2023-05-18T19:26:21.620Z,98806.06
2023-05-18T19:28:51.720Z,98807.69
2023-05-18T19:31:21.399Z,98807.47
2023-05-18T19:33:50.776Z,98803.44
2023-05-18T19:36:19.941Z,98809.72
2023-05-18T19:38:52.408Z,98813.75
2023-05-18T19:41:24.397Z,98814.38
2023-05-18T19:43:54.008Z,98809.53
2023-05-18T19:46:23.259Z,98816.22
2023-05-18T19:48:54.252Z,98815.81
2023-05-18T19:51:25.551Z,98816.38
2023-05-18T19:53:54.822Z,98822.25
2023-05-18T19:56:23.970Z,98816.59
2023-05-18T19:58:53.142Z,98811.38
2023-05-18T20:01:24.591Z,98827.91
2023-05-18T20:03:53.867Z,98822.31
2023-05-18T20:06:23.073Z,98831.78
2023-05-18T20:08:52.153Z,98834.81
2023-05-18T20:11:21.627Z,98844.50
2023-05-18T20:13:50.806Z,98847.94
2023-05-18T20:16:20.505Z,98842.09
2023-05-18T20:18:49.620Z,98845.16
2023-05-18T20:21:20.702Z,98841.94
2023-05-18T20:23:49.823Z,98852.81
2023-05-18T20:26:19.050Z,98850.00
2023-05-18T20:28:48.290Z,98855.03
2023-05-18T20:31:17.740Z,98856.44
2023-05-18T20:33:46.903Z,98858.28
2023-05-18T20:36:16.278Z,98871.41
2023-05-18T20:38:45.382Z,98862.72
2023-05-18T20:41:17.662Z,98860.28
2023-05-18T20:43:46.997Z,98867.34
2023-05-18T20:46:16.186Z,98872.81
2023-05-18T20:48:45.318Z,98875.25
2023-05-18T20:51:18.838Z,98877.25
2023-05-18T20:53:48.884Z,98873.03
2023-05-18T20:56:18.910Z,98878.47
2023-05-18T20:58:48.817Z,98881.31
2023-05-18T21:01:18.819Z,98882.50
2023-05-18T21:03:48.459Z,98879.28
2023-05-18T21:06:17.645Z,98876.84
2023-05-18T21:08:46.796Z,98879.91
2023-05-18T21:11:15.878Z,98884.56
2023-05-18T21:13:45.006Z,98880.91
2023-05-18T21:16:14.223Z,98877.69
2023-05-18T21:18:43.497Z,98892.63
2023-05-18T21:21:12.661Z,98889.38
2023-05-18T21:23:41.763Z,98884.97
2023-05-18T21:26:11.020Z,98883.75
2023-05-18T21:28:40.238Z,98896.44
2023-05-18T21:31:09.416Z,98896.66
2023-05-18T21:33:38.598Z,98893.41
2023-05-18T21:36:09.928Z,98903.31
2023-05-18T21:38:39.041Z,98900.72
2023-05-18T21:41:08.148Z,98883.75
2023-05-18T21:43:37.306Z,98893.84
2023-05-18T21:46:09.236Z,98891.59
2023-05-18T21:48:38.655Z,98887.16
2023-05-18T21:51:11.544Z,98889.38
2023-05-18T21:53:40.652Z,98888.19
2023-05-18T21:56:09.751Z,98898.88
2023-05-18T21:58:38.941Z,98907.56
2023-05-18T22:01:08.062Z,98908.94
2023-05-18T22:03:37.941Z,98906.56
2023-05-18T22:06:07.418Z,98904.72
2023-05-18T22:08:37.398Z,98912.00
2023-05-18T22:11:06.710Z,98910.56
2023-05-18T22:13:35.969Z,98911.97
2023-05-18T22:16:05.633Z,98904.91
2023-05-18T22:18:34.742Z,98905.94
2023-05-18T22:21:04.291Z,98899.47
2023-05-18T22:23:33.457Z,98908.16
2023-05-18T22:26:02.574Z,98909.56
2023-05-18T22:28:31.665Z,98906.34
2023-05-18T22:31:00.959Z,98914.00
2023-05-18T22:33:30.149Z,98913.59
2023-05-18T22:35:59.242Z,98914.41
2023-05-18T22:38:28.408Z,98910.78
2023-05-18T22:40:57.505Z,98913.59
2023-05-18T22:43:26.753Z,98903.31
2023-05-18T22:45:55.853Z,98916.22
2023-05-18T22:48:26.299Z,98899.28
2023-05-18T22:50:55.385Z,98910.78
2023-05-18T22:53:24.454Z,98911.97
2023-05-18T22:55:53.789Z,98912.16
2023-05-18T22:58:22.852Z,98911.56
2023-05-18T23:00:52.093Z,98908.72
2023-05-18T23:03:21.279Z,98906.09
2023-05-18T23:05:50.387Z,98909.94
2023-05-18T23:08:20.572Z,98910.94
2023-05-18T23:10:50.724Z,98913.75
2023-05-18T23:13:19.819Z,98917.16
2023-05-18T23:15:48.982Z,98907.09
2023-05-18T23:18:18.253Z,98907.28
2023-05-18T23:20:50.594Z,98902.44
2023-05-18T23:23:20.497Z,98913.34
2023-05-18T23:25:49.799Z,98914.34
2023-05-18T23:28:19.346Z,98920.38
2023-05-18T23:30:48.470Z,98924.41
2023-05-18T23:33:17.953Z,98918.34
2023-05-18T23:35:48.815Z,98914.72
2023-05-18T23:38:21.930Z,98913.72
2023-05-18T23:40:54.109Z,98909.06
2023-05-18T23:43:23.500Z,98913.88
2023-05-18T23:45:53.306Z,98916.28
2023-05-18T23:48:24.116Z,98907.59
2023-05-18T23:50:57.449Z,98914.84
2023-05-18T23:53:28.397Z,98911.41
2023-05-18T23:55:59.339Z,98911.22
2023-05-18T23:58:30.575Z,98916.63
